Time;durP1;ratioP1;P1;durP2;ratioP2;P2;SDS_P1;SDS_P2;PMS_P1;PMS_P2;Temp;Humidity;BMP_temperature;BMP_pressure;BME280_temperature;BME280_humidity;BME280_pressure;Samples;Min_cycle;Max_cycle;Signal;HPM_P1;HPM_P2
2023/06/10 00:00:30;;;;;;;2.28;2.17;;;;;;;;;;5175850;23;20023;-68
2023/06/10 00:02:51;;;;;;;2.80;2.58;;;;;;;;;;5175848;23;20027;-69
2023/06/10 00:05:11;;;;;;;2.55;2.35;;;;;;;;;;5176083;23;20023;-69
2023/06/10 00:07:31;;;;;;;2.55;2.45;;;;;;;;;;5175934;23;20027;-69
2023/06/10 00:09:51;;;;;;;4.32;2.33;;;;;;;;;;5175915;23;20058;-69
2023/06/10 00:12:11;;;;;;;4.75;3.20;;;;;;;;;;5175971;23;20054;-69
2023/06/10 00:14:32;;;;;;;3.50;2.72;;;;;;;;;;5176000;23;20219;-69
2023/06/10 00:16:52;;;;;;;4.07;3.28;;;;;;;;;;5175759;23;20027;-69
2023/06/10 00:19:15;;;;;;;4.72;2.75;;;;;;;;;;5175733;23;20223;-69
2023/06/10 00:21:39;;;;;;;8.05;3.05;;;;;;;;;;5175786;23;20023;-69
2023/06/10 00:24:02;;;;;;;3.83;3.45;;;;;;;;;;5175788;23;20058;-69
2023/06/10 00:26:22;;;;;;;;;;;;;;;;;;5176204;23;20062;-69
2023/06/10 00:28:45;;;;;;;3.10;2.67;;;;;;;;;;5175878;23;20238;-69
2023/06/10 00:31:05;;;;;;;3.47;3.07;;;;;;;;;;5175813;23;20024;-69
2023/06/10 00:33:26;;;;;;;3.80;2.53;;;;;;;;;;5175678;23;20035;-68
2023/06/10 00:35:46;;;;;;;2.28;2.15;;;;;;;;;;5175718;23;20398;-69
2023/06/10 00:38:06;;;;;;;3.83;2.40;;;;;;;;;;5175673;23;20078;-69
2023/06/10 00:40:27;;;;;;;2.75;2.53;;;;;;;;;;5175340;23;20024;-69
2023/06/10 00:42:47;;;;;;;2.42;2.33;;;;;;;;;;5175448;23;20027;-69
2023/06/10 00:45:07;;;;;;;3.80;2.95;;;;;;;;;;5175640;23;20031;-69
2023/06/10 00:47:29;;;;;;;2.35;2.25;;;;;;;;;;5175506;23;20027;-69
2023/06/10 00:49:50;;;;;;;2.55;2.45;;;;;;;;;;5175496;23;20022;-69
2023/06/10 00:52:11;;;;;;;3.33;3.08;;;;;;;;;;5176038;23;20057;-69
2023/06/10 00:54:32;;;;;;;2.92;2.35;;;;;;;;;;5176675;23;20219;-69
2023/06/10 00:56:53;;;;;;;2.67;2.47;;;;;;;;;;5176604;23;20031;-69
2023/06/10 00:59:14;;;;;;;4.78;2.13;;;;;;;;;;5176773;23;20247;-69
2023/06/10 01:01:37;;;;;;;4.35;2.47;;;;;;;;;;5172680;23;20298;-69
2023/06/10 01:03:58;;;;;;;4.05;2.75;;;;;;;;;;5176562;23;20341;-69
2023/06/10 01:06:47;;;;;;;2.55;2.45;;;;;;;;;;5176560;23;20023;-69
2023/06/10 01:09:14;;;;;;;3.65;2.85;;;;;;;;;;5176548;23;20042;-69
2023/06/10 01:11:37;;;;;;;2.13;2.03;;;;;;;;;;5176729;23;20087;-69
2023/06/10 01:13:59;;;;;;;4.22;2.60;;;;;;;;;;5176684;23;20214;-69
2023/06/10 01:16:20;;;;;;;;;;;;;;;;;;5176968;23;20073;-69
2023/06/10 01:18:42;;;;;;;4.43;2.42;;;;;;;;;;5176531;23;19918;-69
2023/06/10 01:21:02;;;;;;;2.63;2.53;;;;;;;;;;5176481;23;20038;-69
2023/06/10 01:23:22;;;;;;;2.90;2.40;;;;;;;;;;5176419;23;20027;-69
2023/06/10 01:25:55;;;;;;;2.42;2.33;;;;;;;;;;5176509;23;20023;-69
2023/06/10 01:28:15;;;;;;;3.50;2.90;;;;;;;;;;5176661;23;20027;-69
2023/06/10 01:30:43;;;;;;;7.25;3.08;;;;;;;;;;5176501;23;20288;-69
2023/06/10 01:33:05;;;;;;;4.05;3.78;;;;;;;;;;5176358;23;20243;-69
2023/06/10 01:35:29;;;;;;;4.35;3.78;;;;;;;;;;5176523;23;20027;-69
2023/06/10 01:37:50;;;;;;;7.78;3.60;;;;;;;;;;5176579;23;20058;-69
2023/06/10 01:40:11;;;;;;;3.35;3.25;;;;;;;;;;5176232;23;20026;-69
2023/06/10 01:42:32;;;;;;;3.92;3.58;;;;;;;;;;5176331;23;20330;-69
2023/06/10 01:44:52;;;;;;;3.45;3.28;;;;;;;;;;5176593;23;20216;-69
2023/06/10 01:47:12;;;;;;;8.02;3.58;;;;;;;;;;5176399;23;20054;-69
2023/06/10 01:49:32;;;;;;;5.82;2.97;;;;;;;;;;5176366;23;20063;-69
2023/06/10 01:51:52;;;;;;;5.05;3.50;;;;;;;;;;5176447;23;20027;-69
2023/06/10 01:54:13;;;;;;;5.85;3.58;;;;;;;;;;5176438;23;20023;-69
2023/06/10 01:56:34;;;;;;;4.00;3.67;;;;;;;;;;5176291;23;20214;-69
2023/06/10 01:58:58;;;;;;;5.20;4.05;;;;;;;;;;5176415;23;20054;-69
2023/06/10 02:01:18;;;;;;;2.65;2.55;;;;;;;;;;5176424;23;20043;-69
2023/06/10 02:03:39;;;;;;;3.40;3.28;;;;;;;;;;5176080;23;20023;-70
2023/06/10 02:05:59;;;;;;;3.95;2.83;;;;;;;;;;5176387;23;20051;-69
2023/06/10 02:08:20;;;;;;;3.40;3.17;;;;;;;;;;5176472;23;20023;-70
2023/06/10 02:10:40;;;;;;;2.78;2.53;;;;;;;;;;5176341;23;20023;-70
2023/06/10 02:13:01;;;;;;;5.30;4.55;;;;;;;;;;5176268;23;20066;-69
2023/06/10 02:15:21;;;;;;;4.00;3.75;;;;;;;;;;5176411;23;20058;-70
2023/06/10 02:17:41;;;;;;;41.00;5.90;;;;;;;;;;5176312;23;20238;-70
2023/06/10 02:20:04;;;;;;;17.88;4.70;;;;;;;;;;5176177;23;20098;-70
2023/06/10 02:22:25;;;;;;;3.78;3.67;;;;;;;;;;5176376;23;20083;-71
2023/06/10 02:24:45;;;;;;;4.05;3.83;;;;;;;;;;5176364;23;20361;-70
2023/06/10 02:27:08;;;;;;;4.43;3.65;;;;;;;;;;5176272;23;20027;-70
2023/06/10 02:29:29;;;;;;;4.13;3.80;;;;;;;;;;5176345;23;20047;-70
2023/06/10 02:31:49;;;;;;;120.00;7.40;;;;;;;;;;5176443;23;20070;-70
2023/06/10 02:34:10;;;;;;;59.47;4.65;;;;;;;;;;5176235;23;20528;-70
2023/06/10 02:36:31;;;;;;;2.70;2.60;;;;;;;;;;5176278;23;20062;-70
2023/06/10 02:38:51;;;;;;;13.10;3.10;;;;;;;;;;5176258;23;20026;-70
2023/06/10 02:41:11;;;;;;;2.25;2.15;;;;;;;;;;5176078;23;20023;-70
2023/06/10 02:43:31;;;;;;;5.10;2.83;;;;;;;;;;5176143;23;20212;-70
2023/06/10 02:45:51;;;;;;;6.20;3.67;;;;;;;;;;5176216;23;20023;-70
2023/06/10 02:48:12;;;;;;;3.72;3.55;;;;;;;;;;5176208;23;20054;-70
2023/06/10 02:50:32;;;;;;;3.95;3.40;;;;;;;;;;5176078;23;20066;-70
2023/06/10 02:52:52;;;;;;;5.40;3.20;;;;;;;;;;5176237;23;20055;-70
2023/06/10 02:55:13;;;;;;;3.42;3.13;;;;;;;;;;5176256;23;20077;-70
2023/06/10 02:57:33;;;;;;;3.58;3.13;;;;;;;;;;5176138;23;20088;-70
2023/06/10 02:59:53;;;;;;;4.07;2.75;;;;;;;;;;5176185;23;20027;-70
2023/06/10 03:02:13;;;;;;;5.47;3.30;;;;;;;;;;5176221;23;20070;-70
2023/06/10 03:04:33;;;;;;;7.63;4.35;;;;;;;;;;5176103;23;20023;-71
2023/06/10 03:06:54;;;;;;;5.03;4.63;;;;;;;;;;5176175;23;20034;-70
2023/06/10 03:09:14;;;;;;;5.47;4.03;;;;;;;;;;5176235;23;20407;-70
2023/06/10 03:11:34;;;;;;;4.93;4.30;;;;;;;;;;5176109;23;20086;-71
2023/06/10 03:13:55;;;;;;;4.80;4.60;;;;;;;;;;5175930;23;20330;-71
2023/06/10 03:16:16;;;;;;;5.78;5.38;;;;;;;;;;5176015;23;20212;-71
2023/06/10 03:18:36;;;;;;;4.07;3.92;;;;;;;;;;5176130;23;20026;-71
2023/06/10 03:20:57;;;;;;;4.35;4.03;;;;;;;;;;5175855;23;20223;-71
2023/06/10 03:23:18;;;;;;;5.75;3.08;;;;;;;;;;5176098;23;20027;-71
2023/06/10 03:25:38;;;;;;;4.15;3.83;;;;;;;;;;5176126;23;20023;-71
2023/06/10 03:27:58;;;;;;;4.10;3.72;;;;;;;;;;5176101;23;20311;-71
2023/06/10 03:30:19;;;;;;;5.13;4.22;;;;;;;;;;5176174;23;20023;-71
2023/06/10 03:32:39;;;;;;;6.15;5.18;;;;;;;;;;5176248;23;20059;-70
2023/06/10 03:34:59;;;;;;;5.07;4.53;;;;;;;;;;5176014;23;20024;-71
2023/06/10 03:37:19;;;;;;;4.95;4.70;;;;;;;;;;5176012;23;20075;-71
2023/06/10 03:39:39;;;;;;;5.13;4.15;;;;;;;;;;5176054;23;20054;-70
2023/06/10 03:41:59;;;;;;;7.70;5.80;;;;;;;;;;5175915;23;20019;-71
2023/06/10 03:44:20;;;;;;;10.35;6.90;;;;;;;;;;5176093;23;20062;-71
2023/06/10 03:46:40;;;;;;;9.57;6.22;;;;;;;;;;5176166;23;20264;-70
2023/06/10 03:49:01;;;;;;;64.00;10.00;;;;;;;;;;5175988;23;20051;-70
2023/06/10 03:51:21;;;;;;;32.55;7.55;;;;;;;;;;5184420;23;20046;-70
2023/06/10 03:53:41;;;;;;;7.57;7.00;;;;;;;;;;5176109;23;20046;-70
2023/06/10 03:56:01;;;;;;;27.35;7.47;;;;;;;;;;5175947;23;20215;-70
2023/06/10 03:58:22;;;;;;;37.67;8.98;;;;;;;;;;5175873;23;20023;-71
2023/06/10 04:00:42;;;;;;;23.77;8.15;;;;;;;;;;5175845;23;20325;-70
2023/06/10 04:03:03;;;;;;;11.38;7.38;;;;;;;;;;5175970;23;20058;-70
2023/06/10 04:05:23;;;;;;;16.33;10.48;;;;;;;;;;5175894;23;20062;-70
2023/06/10 04:07:44;;;;;;;8.25;7.65;;;;;;;;;;5175962;23;20079;-70
2023/06/10 04:10:06;;;;;;;10.35;6.78;;;;;;;;;;5176339;23;20027;-69
2023/06/10 04:12:26;;;;;;;8.07;7.28;;;;;;;;;;5175777;23;20071;-70
2023/06/10 04:14:46;;;;;;;12.02;5.40;;;;;;;;;;5175868;23;20026;-70
2023/06/10 04:17:07;;;;;;;8.32;6.32;;;;;;;;;;5175920;23;20031;-70
2023/06/10 04:19:28;;;;;;;5.63;5.53;;;;;;;;;;5175786;23;20143;-70
2023/06/10 04:21:49;;;;;;;6.43;5.45;;;;;;;;;;5175651;23;20054;-70
2023/06/10 04:24:09;;;;;;;8.13;6.60;;;;;;;;;;5175868;23;20066;-70
2023/06/10 04:26:29;;;;;;;42.20;6.65;;;;;;;;;;5175538;23;20075;-70
2023/06/10 04:28:50;;;;;;;20.70;5.45;;;;;;;;;;5175759;23;20043;-70
2023/06/10 04:31:10;;;;;;;7.68;5.43;;;;;;;;;;5175716;23;20027;-70
2023/06/10 04:33:31;;;;;;;39.65;7.30;;;;;;;;;;5175737;23;20066;-70
2023/06/10 04:35:51;;;;;;;5.60;4.70;;;;;;;;;;5175603;23;20063;-70
2023/06/10 04:38:12;;;;;;;6.25;5.72;;;;;;;;;;5175756;23;20027;-70
2023/06/10 04:40:33;;;;;;;6.18;5.65;;;;;;;;;;5175513;23;20062;-71
2023/06/10 04:42:53;;;;;;;12.23;6.38;;;;;;;;;;5175572;23;20327;-70
2023/06/10 04:45:13;;;;;;;6.85;6.22;;;;;;;;;;5175647;23;20042;-70
2023/06/10 04:47:34;;;;;;;5.05;4.85;;;;;;;;;;5175593;23;20062;-70
2023/06/10 04:49:54;;;;;;;6.35;5.95;;;;;;;;;;5175460;23;20066;-70
2023/06/10 04:52:15;;;;;;;6.95;6.53;;;;;;;;;;5175464;23;20212;-70
2023/06/10 04:54:39;;;;;;;6.80;6.32;;;;;;;;;;5175582;23;20031;-71
2023/06/10 04:57:00;;;;;;;6.65;6.25;;;;;;;;;;5175530;23;20062;-70
2023/06/10 04:59:20;;;;;;;6.28;5.97;;;;;;;;;;5175478;23;20022;-70
2023/06/10 05:01:41;;;;;;;5.50;5.22;;;;;;;;;;5175438;23;20349;-70
2023/06/10 05:04:01;;;;;;;4.45;4.25;;;;;;;;;;5175523;23;20023;-70
2023/06/10 05:06:22;;;;;;;4.32;4.05;;;;;;;;;;5175450;23;20035;-70
2023/06/10 05:08:42;;;;;;;8.60;4.85;;;;;;;;;;5175512;23;20022;-61
2023/06/10 05:11:02;;;;;;;6.65;5.65;;;;;;;;;;5175341;23;20059;-69
2023/06/10 05:13:22;;;;;;;5.32;4.05;;;;;;;;;;5175318;23;20028;-66
2023/06/10 05:15:44;;;;;;;5.88;4.78;;;;;;;;;;5175392;23;20023;-66
2023/06/10 05:18:05;;;;;;;6.65;4.47;;;;;;;;;;5175340;23;20271;-66
2023/06/10 05:20:26;;;;;;;4.30;4.00;;;;;;;;;;5175228;23;20080;-66
2023/06/10 05:22:46;;;;;;;6.43;4.35;;;;;;;;;;5175387;23;20027;-66
2023/06/10 05:25:07;;;;;;;3.78;3.63;;;;;;;;;;5175345;23;20054;-66
2023/06/10 05:27:28;;;;;;;4.07;3.78;;;;;;;;;;5175276;23;20215;-66
2023/06/10 05:29:49;;;;;;;9.25;4.22;;;;;;;;;;5175282;23;20079;-65
2023/06/10 05:32:09;;;;;;;4.30;4.00;;;;;;;;;;5175297;23;20146;-65
2023/06/10 05:34:30;;;;;;;5.60;5.13;;;;;;;;;;5175312;23;20066;-65
2023/06/10 05:36:51;;;;;;;5.63;5.22;;;;;;;;;;5175281;23;20023;-65
2023/06/10 05:39:11;;;;;;;5.43;5.15;;;;;;;;;;5176367;23;20050;-65
2023/06/10 05:41:31;;;;;;;5.13;4.93;;;;;;;;;;5176366;23;20126;-65
2023/06/10 05:43:51;;;;;;;7.50;6.85;;;;;;;;;;5176417;23;20074;-65
2023/06/10 05:46:12;;;;;;;8.07;7.13;;;;;;;;;;5176686;23;20080;-65
2023/06/10 05:48:32;;;;;;;6.15;5.95;;;;;;;;;;5176396;23;20047;-64
2023/06/10 05:50:52;;;;;;;8.18;6.63;;;;;;;;;;5176398;23;20330;-64
2023/06/10 05:53:14;;;;;;;7.85;5.55;;;;;;;;;;5176461;23;20026;-64
2023/06/10 05:55:35;;;;;;;6.90;6.38;;;;;;;;;;5176572;23;20030;-64
2023/06/10 05:58:00;;;;;;;6.32;6.03;;;;;;;;;;5176391;23;20211;-64
2023/06/10 06:00:20;;;;;;;6.82;6.32;;;;;;;;;;5176464;23;20337;-64
2023/06/10 06:02:41;;;;;;;6.07;5.70;;;;;;;;;;5176459;23;20051;-64
2023/06/10 06:05:04;;;;;;;6.15;5.85;;;;;;;;;;5176341;23;20027;-64
2023/06/10 06:07:24;;;;;;;7.00;5.35;;;;;;;;;;5176347;23;20255;-64
2023/06/10 06:09:45;;;;;;;5.95;5.65;;;;;;;;;;5176372;23;20027;-64
2023/06/10 06:12:07;;;;;;;6.25;5.95;;;;;;;;;;5176362;23;20026;-64
2023/06/10 06:14:34;;;;;;;5.13;4.82;;;;;;;;;;5176394;23;20024;-64
2023/06/10 06:16:55;;;;;;;4.45;4.20;;;;;;;;;;5176337;23;20419;-64
2023/06/10 06:19:15;;;;;;;8.88;5.75;;;;;;;;;;5176326;23;20023;-64
2023/06/10 06:21:36;;;;;;;5.53;5.07;;;;;;;;;;5176203;23;20243;-64
2023/06/10 06:23:57;;;;;;;4.70;4.50;;;;;;;;;;5176369;23;20027;-64
2023/06/10 06:26:18;;;;;;;5.50;5.07;;;;;;;;;;5176351;23;20058;-63
2023/06/10 06:28:38;;;;;;;5.28;4.88;;;;;;;;;;5176215;23;20094;-63
2023/06/10 06:30:58;;;;;;;5.63;5.10;;;;;;;;;;5176212;23;20024;-63
2023/06/10 06:33:19;;;;;;;6.05;5.15;;;;;;;;;;5158367;23;20055;-63
2023/06/10 06:35:40;;;;;;;4.75;4.45;;;;;;;;;;5176218;23;20055;-63
2023/06/10 06:38:01;;;;;;;6.63;4.40;;;;;;;;;;5176324;23;20027;-63
2023/06/10 06:40:21;;;;;;;5.68;5.47;;;;;;;;;;5176184;23;20291;-63
2023/06/10 06:42:42;;;;;;;5.88;5.47;;;;;;;;;;5176251;23;20027;-63
2023/06/10 06:45:03;;;;;;;5.22;5.00;;;;;;;;;;5176258;23;20027;-64
2023/06/10 06:47:24;;;;;;;6.13;5.57;;;;;;;;;;5176281;23;20072;-63
2023/06/10 06:49:47;;;;;;;5.63;5.10;;;;;;;;;;5176254;23;20045;-63
2023/06/10 06:52:07;;;;;;;6.70;6.00;;;;;;;;;;5168285;23;20027;-63
2023/06/10 06:54:27;;;;;;;6.35;5.45;;;;;;;;;;5176266;23;20024;-63
2023/06/10 06:56:48;;;;;;;5.47;5.25;;;;;;;;;;5176150;23;20107;-63
2023/06/10 06:59:08;;;;;;;6.22;5.70;;;;;;;;;;5176096;23;20062;-63
2023/06/10 07:01:28;;;;;;;5.43;5.20;;;;;;;;;;5176131;23;20022;-63
2023/06/10 07:03:48;;;;;;;5.28;4.85;;;;;;;;;;5176283;23;20027;-63
2023/06/10 07:06:08;;;;;;;6.45;5.40;;;;;;;;;;5176180;23;20334;-63
2023/06/10 07:08:29;;;;;;;5.93;5.55;;;;;;;;;;5176281;23;20034;-63
2023/06/10 07:10:49;;;;;;;5.03;4.70;;;;;;;;;;5176296;23;20027;-63
2023/06/10 07:13:10;;;;;;;6.68;6.03;;;;;;;;;;5176075;23;20224;-63
2023/06/10 07:15:34;;;;;;;6.22;5.57;;;;;;;;;;5176046;23;20066;-62
2023/06/10 07:17:55;;;;;;;5.28;5.07;;;;;;;;;;5176158;23;20023;-63
2023/06/10 07:20:15;;;;;;;5.32;5.15;;;;;;;;;;5176098;23;20223;-63
2023/06/10 07:22:36;;;;;;;6.00;5.50;;;;;;;;;;5176055;23;20341;-63
2023/06/10 07:24:56;;;;;;;5.25;4.95;;;;;;;;;;5176099;23;20074;-62
2023/06/10 07:27:16;;;;;;;5.40;5.10;;;;;;;;;;5176105;23;20119;-62
2023/06/10 07:29:36;;;;;;;4.55;4.45;;;;;;;;;;5176092;23;20054;-62
2023/06/10 07:31:56;;;;;;;5.28;4.97;;;;;;;;;;5176221;23;20023;-62
2023/06/10 07:34:16;;;;;;;5.00;4.65;;;;;;;;;;5184561;23;20337;-62
2023/06/10 07:36:37;;;;;;;5.45;5.07;;;;;;;;;;5176013;23;20054;-62
2023/06/10 07:38:57;;;;;;;5.28;5.18;;;;;;;;;;5176103;23;20063;-62
2023/06/10 07:41:19;;;;;;;5.35;4.93;;;;;;;;;;5175983;23;20342;-62
2023/06/10 07:43:39;;;;;;;7.05;4.85;;;;;;;;;;5176027;23;20058;-62
2023/06/10 07:46:03;;;;;;;5.07;4.75;;;;;;;;;;5176006;23;20072;-62
2023/06/10 07:48:24;;;;;;;5.53;5.40;;;;;;;;;;5176069;23;20035;-62
2023/06/10 07:50:45;;;;;;;4.68;4.38;;;;;;;;;;5175934;23;20338;-62
2023/06/10 07:53:05;;;;;;;3.55;3.35;;;;;;;;;;5175968;23;20027;-61
2023/06/10 07:55:28;;;;;;;3.75;3.55;;;;;;;;;;5175970;23;20023;-61
2023/06/10 07:57:49;;;;;;;5.47;4.53;;;;;;;;;;5175966;23;20058;-61
2023/06/10 08:00:09;;;;;;;4.00;3.03;;;;;;;;;;5175781;23;20058;-61
2023/06/10 08:02:29;;;;;;;7.40;2.78;;;;;;;;;;5176071;23;20395;-61
2023/06/10 08:04:50;;;;;;;4.40;1.92;;;;;;;;;;5176026;23;20058;-61
2023/06/10 08:07:10;;;;;;;5.72;2.75;;;;;;;;;;5175983;23;20264;-61
2023/06/10 08:09:30;;;;;;;5.82;1.77;;;;;;;;;;5175908;23;20122;-61
2023/06/10 08:11:51;;;;;;;4.20;2.00;;;;;;;;;;5175900;23;20023;-61
2023/06/10 08:14:12;;;;;;;4.43;1.95;;;;;;;;;;5175858;23;20092;-60
2023/06/10 08:16:32;;;;;;;1.63;1.50;;;;;;;;;;5175878;23;20070;-60
2023/06/10 08:18:52;;;;;;;4.18;1.98;;;;;;;;;;5175931;23;20058;-60
2023/06/10 08:21:15;;;;;;;2.97;1.70;;;;;;;;;;5175777;23;20066;-60
2023/06/10 08:23:37;;;;;;;5.32;1.75;;;;;;;;;;5175803;23;20027;-60
2023/06/10 08:25:58;;;;;;;4.10;1.30;;;;;;;;;;5175893;23;20027;-60
2023/06/10 08:28:18;;;;;;;2.42;1.23;;;;;;;;;;5175970;23;20094;-61
2023/06/10 08:30:39;;;;;;;1.00;1.00;;;;;;;;;;5175772;23;20023;-61
2023/06/10 08:32:59;;;;;;;1.00;1.00;;;;;;;;;;5175915;23;20074;-61
2023/06/10 08:35:20;;;;;;;0.90;0.90;;;;;;;;;;5175801;23;20032;-60
2023/06/10 08:37:40;;;;;;;1.80;1.08;;;;;;;;;;5175796;23;20384;-60
2023/06/10 08:40:01;;;;;;;2.03;1.02;;;;;;;;;;5175686;23;20031;-59
2023/06/10 08:42:21;;;;;;;3.45;1.10;;;;;;;;;;5175723;23;20066;-60
2023/06/10 08:44:42;;;;;;;1.20;1.20;;;;;;;;;;5175592;23;20334;-60
2023/06/10 08:47:03;;;;;;;1.83;1.55;;;;;;;;;;5175759;23;20255;-60
2023/06/10 08:49:26;;;;;;;2.55;1.00;;;;;;;;;;5175648;23;20062;-60
2023/06/10 08:51:51;;;;;;;1.00;1.00;;;;;;;;;;5175696;23;20023;-60
2023/06/10 08:54:20;;;;;;;1.40;1.00;;;;;;;;;;5175646;23;20215;-60
2023/06/10 08:56:41;;;;;;;1.08;1.08;;;;;;;;;;5175556;23;20251;-60
2023/06/10 08:59:02;;;;;;;7.78;1.58;;;;;;;;;;5175614;23;20026;-60
2023/06/10 09:01:24;;;;;;;1.08;0.98;;;;;;;;;;5175344;23;20070;-60
2023/06/10 09:03:44;;;;;;;1.53;0.90;;;;;;;;;;5175475;23;20050;-60
2023/06/10 09:06:08;;;;;;;1.00;1.00;;;;;;;;;;5175663;23;20038;-61
2023/06/10 09:08:28;;;;;;;1.25;1.25;;;;;;;;;;5175633;23;20390;-60
2023/06/10 09:10:49;;;;;;;0.80;0.80;;;;;;;;;;5175483;23;20058;-60
2023/06/10 09:13:09;;;;;;;2.45;0.90;;;;;;;;;;5175930;23;20023;-60
2023/06/10 09:15:30;;;;;;;0.90;0.90;;;;;;;;;;5176666;23;20062;-61
2023/06/10 09:17:51;;;;;;;2.85;0.88;;;;;;;;;;5176525;23;20063;-61
2023/06/10 09:20:12;;;;;;;3.33;1.20;;;;;;;;;;5176555;23;20082;-61
2023/06/10 09:22:33;;;;;;;2.25;0.80;;;;;;;;;;5176652;23;20210;-60
2023/06/10 09:25:10;;;;;;;1.77;1.05;;;;;;;;;;5176519;23;20047;-60
2023/06/10 09:27:34;;;;;;;2.05;0.80;;;;;;;;;;5176513;23;20027;-60
2023/06/10 09:29:57;;;;;;;2.45;1.10;;;;;;;;;;5176495;23;20023;-60
2023/06/10 09:32:18;;;;;;;1.85;1.00;;;;;;;;;;5176614;23;20023;-60
2023/06/10 09:34:40;;;;;;;0.80;0.80;;;;;;;;;;5176482;23;20211;-60
2023/06/10 09:37:00;;;;;;;0.80;0.80;;;;;;;;;;5176506;23;20023;-60
2023/06/10 09:39:21;;;;;;;2.55;0.80;;;;;;;;;;5176658;23;20027;-60
2023/06/10 09:41:41;;;;;;;1.58;0.90;;;;;;;;;;5176467;23;20039;-60
2023/06/10 09:44:02;;;;;;;0.90;0.90;;;;;;;;;;5176439;23;20046;-60
2023/06/10 09:46:22;;;;;;;1.42;1.10;;;;;;;;;;5176564;23;20057;-60
2023/06/10 09:48:44;;;;;;;1.27;1.23;;;;;;;;;;5162919;23;20027;-60
2023/06/10 09:51:09;;;;;;;1.48;1.23;;;;;;;;;;5176396;23;20039;-61
2023/06/10 09:53:33;;;;;;;1.75;0.90;;;;;;;;;;5176400;23;20079;-60
2023/06/10 09:55:54;;;;;;;1.33;1.00;;;;;;;;;;5176574;23;20062;-60
2023/06/10 09:58:15;;;;;;;4.05;1.15;;;;;;;;;;5176452;23;20023;-60
2023/06/10 10:00:35;;;;;;;1.38;1.27;;;;;;;;;;5176298;23;20107;-60
2023/06/10 10:02:55;;;;;;;4.15;1.10;;;;;;;;;;5176504;23;20094;-60
2023/06/10 10:05:16;;;;;;;1.00;1.00;;;;;;;;;;5176413;23;20024;-60
2023/06/10 10:07:37;;;;;;;1.23;1.13;;;;;;;;;;5176342;23;20222;-60
2023/06/10 10:09:57;;;;;;;1.13;1.02;;;;;;;;;;5176337;23;20315;-65
2023/06/10 10:12:18;;;;;;;1.58;1.30;;;;;;;;;;5176409;23;20369;-65
2023/06/10 10:14:38;;;;;;;3.53;1.20;;;;;;;;;;5176249;23;20065;-66
2023/06/10 10:17:00;;;;;;;1.10;0.90;;;;;;;;;;5176358;23;20023;-65
2023/06/10 10:19:23;;;;;;;1.90;1.20;;;;;;;;;;5170574;23;20027;-65
2023/06/10 10:21:45;;;;;;;1.17;1.10;;;;;;;;;;5176180;23;20246;-65
2023/06/10 10:24:08;;;;;;;2.33;1.13;;;;;;;;;;5176070;23;20035;-66
2023/06/10 10:26:29;;;;;;;1.83;1.73;;;;;;;;;;5176414;23;20023;-65
2023/06/10 10:29:05;;;;;;;1.00;1.00;;;;;;;;;;5176355;23;20088;-65
2023/06/10 10:31:28;;;;;;;2.70;1.20;;;;;;;;;;5176213;23;20338;-65
2023/06/10 10:33:48;;;;;;;;;;;;;;;;;;5176697;23;20316;-65
2023/06/10 10:36:09;;;;;;;2.03;1.10;;;;;;;;;;5176380;23;19963;-65
2023/06/10 10:38:29;;;;;;;2.35;1.13;;;;;;;;;;5176373;23;20333;-65
2023/06/10 10:40:49;;;;;;;1.10;1.00;;;;;;;;;;5176179;23;20090;-65
2023/06/10 10:43:10;;;;;;;3.60;1.20;;;;;;;;;;5176401;23;20073;-65
2023/06/10 10:45:31;;;;;;;1.10;0.90;;;;;;;;;;5176369;23;20115;-65
2023/06/10 10:47:58;;;;;;;4.05;1.30;;;;;;;;;;5176207;23;20065;-65
2023/06/10 10:50:19;;;;;;;2.10;1.40;;;;;;;;;;5176125;23;20070;-65
2023/06/10 10:52:53;;;;;;;1.70;1.60;;;;;;;;;;5176478;23;20023;-65
2023/06/10 10:55:13;;;;;;;2.75;1.23;;;;;;;;;;5176364;23;20027;-65
2023/06/10 10:57:39;;;;;;;3.50;1.70;;;;;;;;;;5176228;23;20022;-65
2023/06/10 11:00:00;;;;;;;2.72;1.20;;;;;;;;;;5176287;23;20027;-65
2023/06/10 11:02:42;;;;;;;1.88;1.27;;;;;;;;;;5176297;23;20027;-65
2023/06/10 11:05:03;;;;;;;1.05;1.02;;;;;;;;;;5176390;23;20023;-65
2023/06/10 11:07:29;;;;;;;3.90;1.40;;;;;;;;;;5176275;23;20055;-65
2023/06/10 11:10:09;;;;;;;5.88;1.83;;;;;;;;;;5176276;23;20034;-66
2023/06/10 11:12:43;;;;;;;1.42;1.00;;;;;;;;;;5176242;23;20215;-66
2023/06/10 11:15:03;;;;;;;1.20;1.10;;;;;;;;;;5176408;23;20051;-66
2023/06/10 11:17:24;;;;;;;1.85;1.60;;;;;;;;;;5176627;23;20075;-67
2023/06/10 11:19:46;;;;;;;3.25;1.23;;;;;;;;;;5176222;23;20030;-66
2023/06/10 11:22:09;;;;;;;2.80;1.33;;;;;;;;;;5176200;23;20065;-66
2023/06/10 11:24:29;;;;;;;;;;;;;;;;;;5176849;23;20365;-65
2023/06/10 11:26:50;;;;;;;2.33;1.10;;;;;;;;;;5176292;23;19930;-67
2023/06/10 11:29:10;;;;;;;2.92;1.08;;;;;;;;;;5171015;23;20032;-66
2023/06/10 11:31:32;;;;;;;1.15;1.10;;;;;;;;;;5175215;23;20071;-67
2023/06/10 11:33:53;;;;;;;3.00;1.35;;;;;;;;;;5176185;23;20027;-67
2023/06/10 11:36:14;;;;;;;2.55;1.10;;;;;;;;;;5175479;23;20058;-68
2023/06/10 11:38:34;;;;;;;0.95;0.93;;;;;;;;;;5176162;23;20091;-68
2023/06/10 11:40:56;;;;;;;2.17;1.00;;;;;;;;;;5184503;23;20334;-67
2023/06/10 11:43:20;;;;;;;2.20;1.00;;;;;;;;;;5176207;23;20223;-67
2023/06/10 11:45:42;;;;;;;1.70;1.08;;;;;;;;;;5176144;23;20245;-67
2023/06/10 11:48:02;;;;;;;3.25;0.98;;;;;;;;;;5176291;23;20039;-68
2023/06/10 11:50:30;;;;;;;4.00;1.38;;;;;;;;;;5176118;23;20377;-68
2023/06/10 11:52:51;;;;;;;2.83;1.10;;;;;;;;;;5176043;23;20035;-68
2023/06/10 11:55:11;;;;;;;1.05;1.05;;;;;;;;;;5176179;23;20023;-67
2023/06/10 11:57:34;;;;;;;2.22;1.02;;;;;;;;;;5176149;23;20211;-67
2023/06/10 11:59:54;;;;;;;0.80;0.80;;;;;;;;;;5176158;23;20023;-67
2023/06/10 12:02:19;;;;;;;1.10;1.00;;;;;;;;;;5162078;23;20353;-67
2023/06/10 12:04:39;;;;;;;1.25;1.00;;;;;;;;;;5174823;23;20023;-68
2023/06/10 12:06:59;;;;;;;0.90;0.90;;;;;;;;;;5175948;23;20057;-68
2023/06/10 12:09:20;;;;;;;1.95;1.25;;;;;;;;;;5175902;23;20334;-67
2023/06/10 12:11:49;;;;;;;3.22;0.90;;;;;;;;;;5168865;23;20023;-67
2023/06/10 12:14:10;;;;;;;2.83;0.90;;;;;;;;;;5175950;23;20027;-67
2023/06/10 12:16:30;;;;;;;4.90;1.58;;;;;;;;;;5171600;23;20023;-68
2023/06/10 12:18:51;;;;;;;1.67;1.00;;;;;;;;;;5175985;23;20089;-67
2023/06/10 12:21:25;;;;;;;1.65;0.90;;;;;;;;;;5174074;23;20023;-67
2023/06/10 12:24:08;;;;;;;2.78;1.05;;;;;;;;;;5175906;23;20027;-67
2023/06/10 12:26:29;;;;;;;;;;;;;;;;;;5176413;23;20031;-67
2023/06/10 12:28:51;;;;;;;2.90;1.15;;;;;;;;;;5184241;23;19977;-68
2023/06/10 12:31:11;;;;;;;16.70;3.95;;;;;;;;;;5175827;23;20027;-67
2023/06/10 12:33:31;;;;;;;4.07;1.13;;;;;;;;;;5175885;23;20023;-67
2023/06/10 12:35:52;;;;;;;2.35;1.25;;;;;;;;;;5175800;23;20050;-68
2023/06/10 12:38:13;;;;;;;1.90;1.15;;;;;;;;;;5175823;23;20023;-67
2023/06/10 12:40:35;;;;;;;3.40;1.00;;;;;;;;;;5175810;23;20216;-66
2023/06/10 12:42:56;;;;;;;0.90;0.90;;;;;;;;;;5175837;23;20267;-66
2023/06/10 12:45:26;;;;;;;1.13;0.90;;;;;;;;;;5165301;23;20031;-69
2023/06/10 12:47:47;;;;;;;2.35;1.08;;;;;;;;;;5176249;23;20215;-70
2023/06/10 12:50:08;;;;;;;3.20;1.13;;;;;;;;;;5176852;23;20053;-68
2023/06/10 12:52:29;;;;;;;1.27;1.00;;;;;;;;;;5176837;23;20074;-66
2023/06/10 12:54:49;;;;;;;2.50;1.02;;;;;;;;;;5176802;23;20091;-65
2023/06/10 12:57:10;;;;;;;2.97;1.33;;;;;;;;;;5176914;23;20022;-66
2023/06/10 12:59:32;;;;;;;2.33;1.25;;;;;;;;;;5176865;23;20027;-65
2023/06/10 13:01:52;;;;;;;4.20;1.25;;;;;;;;;;5176782;23;20431;-66
2023/06/10 13:04:13;;;;;;;2.80;1.48;;;;;;;;;;5176882;23;20026;-66
2023/06/10 13:06:36;;;;;;;10.05;1.60;;;;;;;;;;5176795;23;20022;-66
2023/06/10 13:08:56;;;;;;;;;;;;;;;;;;5177126;23;20027;-67
2023/06/10 13:11:17;;;;;;;1.00;1.00;;;;;;;;;;5176759;23;19934;-65
2023/06/10 13:13:37;;;;;;;3.80;1.02;;;;;;;;;;5176749;23;20038;-67
2023/06/10 13:15:58;;;;;;;3.53;1.17;;;;;;;;;;5176704;23;20061;-65
2023/06/10 13:18:18;;;;;;;1.65;0.90;;;;;;;;;;5176698;23;20415;-66
2023/06/10 13:20:39;;;;;;;1.45;1.40;;;;;;;;;;5176849;23;20246;-66
2023/06/10 13:22:59;;;;;;;3.22;1.42;;;;;;;;;;5176686;23;20259;-68
2023/06/10 13:25:19;;;;;;;4.65;1.50;;;;;;;;;;5176690;23;20130;-67
2023/06/10 13:27:41;;;;;;;2.72;1.25;;;;;;;;;;5176764;23;20258;-67
2023/06/10 13:30:02;;;;;;;4.13;1.50;;;;;;;;;;5176697;23;20057;-66
2023/06/10 13:32:22;;;;;;;1.52;1.23;;;;;;;;;;5176613;23;20039;-66
2023/06/10 13:34:42;;;;;;;3.00;1.40;;;;;;;;;;5176634;23;20026;-66
2023/06/10 13:37:04;;;;;;;1.67;1.10;;;;;;;;;;5176583;23;20126;-67
2023/06/10 13:39:24;;;;;;;2.30;1.20;;;;;;;;;;5176466;23;20254;-69
2023/06/10 13:41:45;;;;;;;4.68;1.17;;;;;;;;;;5176494;23;20062;-69
2023/06/10 13:44:06;;;;;;;1.70;1.58;;;;;;;;;;5176641;23;20066;-69
2023/06/10 13:46:27;;;;;;;3.60;1.52;;;;;;;;;;5176483;23;20023;-69
2023/06/10 13:48:48;;;;;;;1.98;1.50;;;;;;;;;;5176479;23;20027;-69
2023/06/10 13:51:09;;;;;;;3.33;1.40;;;;;;;;;;5176613;23;20043;-69
2023/06/10 13:53:29;;;;;;;2.75;1.48;;;;;;;;;;5176606;23;20118;-69
2023/06/10 13:55:49;;;;;;;4.93;1.40;;;;;;;;;;5176616;23;20026;-69
2023/06/10 13:58:10;;;;;;;1.50;1.40;;;;;;;;;;5176455;23;20058;-69
2023/06/10 14:00:30;;;;;;;2.55;1.17;;;;;;;;;;5176608;23;20086;-69
2023/06/10 14:02:51;;;;;;;1.60;1.20;;;;;;;;;;5176462;23;20055;-69
2023/06/10 14:05:11;;;;;;;2.70;1.40;;;;;;;;;;5176454;23;20027;-69
2023/06/10 14:07:32;;;;;;;2.83;1.40;;;;;;;;;;5176502;23;20022;-69